Time,TemperatureF,DewpointF,PressureIn,WindDirection,WindDirectionDegrees,WindSpeedMPH,WindSpeedGustMPH,Humidity,HourlyPrecipIn,Conditions,Clouds,dailyrainin,SoftwareType,DateUTC
2013-01-27 00:01:00,32.0,26.0,-100.00,North,10,4.0,6.0,77,0.00,,,-99.99,,2013-01-27 07:01:00,
2013-01-27 00:13:00,32.0,26.0,-100.00,North,10,4.0,4.0,77,0.00,,,-99.99,,2013-01-27 07:13:00,
2013-01-27 00:21:00,33.0,26.0,-100.00,North,10,1.0,2.0,75,0.00,,,-99.99,,2013-01-27 07:21:00,
2013-01-27 00:31:00,33.0,26.0,-100.00,North,10,1.0,3.0,76,0.00,,,-99.99,,2013-01-27 07:31:00,
2013-01-27 00:41:00,33.0,26.0,-100.00,North,10,1.0,2.0,75,0.00,,,-99.99,,2013-01-27 07:41:00,
2013-01-27 00:51:00,33.0,26.0,-100.00,North,10,1.0,2.0,76,0.00,,,-99.99,,2013-01-27 07:51:00,
2013-01-27 01:01:00,33.0,26.0,-100.00,North,7,0.0,2.0,76,0.00,,,-99.99,,2013-01-27 08:01:00,
2013-01-27 01:11:00,33.0,26.0,-100.00,North,0,1.0,3.0,76,0.00,,,-99.99,,2013-01-27 08:11:00,
2013-01-27 01:22:00,33.0,26.0,-100.00,NNW,329,4.0,7.0,77,0.00,,,-99.99,,2013-01-27 08:22:00,
2013-01-27 01:31:00,32.0,26.0,-100.00,NW,308,4.0,6.0,79,0.00,,,-99.99,,2013-01-27 08:31:00,
2013-01-27 01:42:00,32.0,27.0,-100.00,WNW,301,6.0,8.0,81,0.00,,,-99.99,,2013-01-27 08:42:00,
2013-01-27 01:52:00,32.0,27.0,-100.00,WNW,287,4.0,6.0,82,0.00,,,-99.99,,2013-01-27 08:52:00,
2013-01-27 02:02:00,32.0,27.0,-100.00,West,277,4.0,6.0,82,0.00,,,-99.99,,2013-01-27 09:02:00,
2013-01-27 02:11:00,32.0,27.0,-100.00,West,275,4.0,6.0,82,0.00,,,-99.99,,2013-01-27 09:11:00,
2013-01-27 02:21:00,31.0,27.0,-100.00,West,275,2.0,4.0,83,0.00,,,-99.99,,2013-01-27 09:21:00,
2013-01-27 02:32:00,32.0,27.0,-100.00,West,275,1.0,3.0,83,0.00,,,-99.99,,2013-01-27 09:32:00,
2013-01-27 02:41:00,32.0,27.0,-100.00,West,271,2.0,5.0,83,0.00,,,-99.99,,2013-01-27 09:41:00,
2013-01-27 02:51:00,32.0,27.0,-100.00,West,270,2.0,4.0,84,0.00,,,-99.99,,2013-01-27 09:51:00,
2013-01-27 03:01:00,32.0,27.0,-100.00,West,263,2.0,6.0,84,0.00,,,-99.99,,2013-01-27 10:01:00,
2013-01-27 03:11:00,32.0,28.0,-100.00,WSW,253,4.0,6.0,86,0.00,,,-99.99,,2013-01-27 10:11:00,
2013-01-27 03:21:00,33.0,29.0,-100.00,West,261,7.0,11.0,86,0.01,,,-99.99,,2013-01-27 10:21:00,
2013-01-27 03:31:00,32.0,29.0,-100.00,West,271,9.0,12.0,89,0.00,,,-99.99,,2013-01-27 10:31:00,
2013-01-27 03:41:00,32.0,29.0,-100.00,West,272,9.0,12.0,90,0.00,,,-99.99,,2013-01-27 10:41:00,
2013-01-27 03:51:00,32.0,29.0,-100.00,WNW,282,8.0,10.0,92,0.00,,,-99.99,,2013-01-27 10:51:00,
2013-01-27 04:01:00,31.0,29.0,-100.00,WNW,288,7.0,9.0,92,0.00,,,-99.99,,2013-01-27 11:01:00,
2013-01-27 04:11:00,31.0,29.0,-100.00,WNW,289,7.0,9.0,93,0.00,,,-99.99,,2013-01-27 11:11:00,
2013-01-27 04:21:00,30.0,28.0,-100.00,WNW,294,6.0,7.0,94,0.00,,,-99.99,,2013-01-27 11:21:00,
2013-01-27 04:32:00,29.0,28.0,-100.00,WNW,299,6.0,7.0,95,0.00,,,-99.99,,2013-01-27 11:32:00,
2013-01-27 04:42:00,29.0,28.0,-100.00,WNW,301,5.0,6.0,96,0.00,,,-99.99,,2013-01-27 11:42:00,
2013-01-27 04:52:00,29.0,28.0,-100.00,WNW,301,2.0,4.0,96,0.00,,,-99.99,,2013-01-27 11:52:00,
2013-01-27 05:02:00,29.0,28.0,-100.00,NW,305,2.0,5.0,96,0.00,,,-99.99,,2013-01-27 12:02:00,
2013-01-27 05:11:00,29.0,28.0,-100.00,NW,319,3.0,6.0,96,0.00,,,-99.99,,2013-01-27 12:11:00,
2013-01-27 05:21:00,29.0,28.0,-100.00,NW,319,2.0,6.0,96,0.00,,,-99.99,,2013-01-27 12:21:00,
2013-01-27 05:32:00,28.0,27.0,-100.00,NW,319,0.0,1.0,96,0.00,,,-99.99,,2013-01-27 12:32:00,
2013-01-27 05:42:00,29.0,28.0,-100.00,NW,319,1.0,2.0,96,0.00,,,-99.99,,2013-01-27 12:42:00,
2013-01-27 05:52:00,31.0,29.0,-100.00,SW,223,6.0,11.0,90,0.00,,,-99.99,,2013-01-27 12:52:00,
2013-01-27 06:02:00,32.0,28.0,-100.00,WSW,237,7.0,10.0,85,0.00,,,-99.99,,2013-01-27 13:02:00,
2013-01-27 06:11:00,32.0,28.0,-100.00,SW,229,8.0,10.0,86,0.00,,,-99.99,,2013-01-27 13:11:00,
2013-01-27 06:22:00,33.0,27.0,-100.00,SSW,213,9.0,12.0,81,0.00,,,-99.99,,2013-01-27 13:22:00,
2013-01-27 06:32:00,33.0,27.0,-100.00,SW,215,10.0,15.0,79,0.00,,,-99.99,,2013-01-27 13:32:00,
2013-01-27 06:42:00,32.0,27.0,-100.00,SSW,196,9.0,14.0,81,0.00,,,-99.99,,2013-01-27 13:42:00,
2013-01-27 06:52:00,32.0,27.0,-100.00,SSW,199,7.0,10.0,78,0.00,,,-99.99,,2013-01-27 13:52:00,
2013-01-27 07:02:00,33.0,26.0,-100.00,SSW,205,10.0,14.0,75,0.00,,,-99.99,,2013-01-27 14:02:00,
2013-01-27 07:11:00,33.0,26.0,-100.00,SSW,209,9.0,14.0,76,0.00,,,-99.99,,2013-01-27 14:11:00,
2013-01-27 07:22:00,33.0,26.0,-100.00,SW,219,13.0,19.0,76,0.00,,,-99.99,,2013-01-27 14:22:00,
2013-01-27 07:32:00,33.0,26.0,-100.00,SW,215,14.0,21.0,76,0.00,,,-99.99,,2013-01-27 14:32:00,
2013-01-27 07:42:00,33.0,27.0,-100.00,SSW,210,15.0,21.0,75,0.00,,,-99.99,,2013-01-27 14:42:00,
2013-01-27 07:52:00,34.0,26.0,-100.00,SSW,212,14.0,21.0,75,0.00,,,-99.99,,2013-01-27 14:52:00,
2013-01-27 08:02:00,33.0,26.0,-100.00,SW,217,12.0,17.0,75,0.00,,,-99.99,,2013-01-27 15:02:00,
2013-01-27 08:11:00,34.0,27.0,-100.00,SW,226,9.0,15.0,75,0.00,,,-99.99,,2013-01-27 15:11:00,
2013-01-27 08:22:00,34.0,27.0,-100.00,SW,226,11.0,17.0,75,0.00,,,-99.99,,2013-01-27 15:22:00,
2013-01-27 08:32:00,34.0,27.0,-100.00,SW,220,12.0,17.0,74,0.00,,,-99.99,,2013-01-27 15:32:00,
2013-01-27 08:42:00,35.0,27.0,-100.00,SW,223,13.0,21.0,72,0.00,,,-99.99,,2013-01-27 15:42:00,
2013-01-27 08:52:00,35.0,26.0,-100.00,SSW,213,14.0,20.0,70,0.00,,,-99.99,,2013-01-27 15:52:00,
2013-01-27 09:02:00,35.0,26.0,-100.00,SSW,212,7.0,15.0,70,0.00,,,-99.99,,2013-01-27 16:02:00,
2013-01-27 09:11:00,36.0,26.0,-100.00,SSW,212,8.0,19.0,68,0.00,,,-99.99,,2013-01-27 16:11:00,
2013-01-27 09:21:00,37.0,27.0,-100.00,SW,226,12.0,20.0,67,0.00,,,-99.99,,2013-01-27 16:21:00,
2013-01-27 09:32:00,37.0,26.0,-100.00,SW,232,12.0,18.0,64,0.00,,,-99.99,,2013-01-27 16:32:00,
2013-01-27 09:42:00,37.0,26.0,-100.00,SW,222,14.0,20.0,64,0.00,,,-99.99,,2013-01-27 16:42:00,
2013-01-27 09:52:00,37.0,27.0,-100.00,SW,223,16.0,21.0,66,0.00,,,-99.99,,2013-01-27 16:52:00,
2013-01-27 10:02:00,36.0,27.0,-100.00,SW,233,16.0,23.0,67,0.00,,,-99.99,,2013-01-27 17:02:00,
2013-01-27 10:12:00,36.0,27.0,-100.00,SW,234,14.0,20.0,69,0.00,,,-99.99,,2013-01-27 17:12:00,
2013-01-27 10:22:00,37.0,27.0,-100.00,WSW,244,11.0,16.0,67,0.00,,,-99.99,,2013-01-27 17:22:00,
2013-01-27 10:32:00,37.0,27.0,-100.00,WSW,253,9.0,17.0,67,0.00,,,-99.99,,2013-01-27 17:32:00,
2013-01-27 10:42:00,37.0,27.0,-100.00,West,260,9.0,14.0,66,0.00,,,-99.99,,2013-01-27 17:42:00,
2013-01-27 10:52:00,37.0,27.0,-100.00,WSW,248,6.0,11.0,66,0.00,,,-99.99,,2013-01-27 17:52:00,
2013-01-27 11:02:00,38.0,26.0,-100.00,WSW,246,7.0,11.0,64,0.00,,,-99.99,,2013-01-27 18:02:00,
2013-01-27 11:11:00,38.0,26.0,-100.00,SSW,212,10.0,16.0,61,0.00,,,-99.99,,2013-01-27 18:11:00,
2013-01-27 11:22:00,38.0,26.0,-100.00,SW,232,12.0,16.0,61,0.00,,,-99.99,,2013-01-27 18:22:00,
2013-01-27 11:32:00,39.0,26.0,-100.00,SW,217,11.0,17.0,59,0.00,,,-99.99,,2013-01-27 18:32:00,
2013-01-27 11:42:00,39.0,26.0,-100.00,SW,216,10.0,17.0,60,0.00,,,-99.99,,2013-01-27 18:42:00,
2013-01-27 11:52:00,39.0,26.0,-100.00,SW,226,11.0,17.0,59,0.00,,,-99.99,,2013-01-27 18:52:00,
2013-01-27 12:02:00,39.0,26.0,-100.00,SW,232,12.0,18.0,59,0.00,,,-99.99,,2013-01-27 19:02:00,
2013-01-27 12:11:00,39.0,25.0,-100.00,SW,232,13.0,18.0,57,0.00,,,-99.99,,2013-01-27 19:11:00,
2013-01-27 12:22:00,39.0,25.0,-100.00,SW,222,12.0,19.0,56,0.00,,,-99.99,,2013-01-27 19:22:00,
2013-01-27 12:32:00,39.0,25.0,-100.00,SW,236,11.0,16.0,57,0.00,,,-99.99,,2013-01-27 19:32:00,
2013-01-27 12:42:00,40.0,24.0,-100.00,WSW,246,8.0,14.0,54,0.00,,,-99.99,,2013-01-27 19:42:00,
2013-01-27 12:51:00,40.0,25.0,-100.00,West,263,7.0,12.0,54,0.00,,,-99.99,,2013-01-27 19:51:00,
2013-01-27 13:02:00,42.0,22.0,-100.00,SW,219,9.0,22.0,45,0.00,,,-99.99,,2013-01-27 20:02:00,
2013-01-27 13:11:00,42.0,22.0,-100.00,SSW,203,11.0,24.0,44,0.00,,,-99.99,,2013-01-27 20:11:00,
2013-01-27 13:22:00,42.0,22.0,-100.00,SSW,198,12.0,24.0,44,0.00,,,-99.99,,2013-01-27 20:22:00,
2013-01-27 13:32:00,43.0,21.0,-100.00,South,186,9.0,16.0,41,0.00,,,-99.99,,2013-01-27 20:32:00,
2013-01-27 13:42:00,44.0,20.0,-100.00,South,172,11.0,22.0,38,0.00,,,-99.99,,2013-01-27 20:42:00,
2013-01-27 13:52:00,43.0,20.0,-100.00,South,176,12.0,27.0,38,0.00,,,-99.99,,2013-01-27 20:52:00,
2013-01-27 14:02:00,43.0,19.0,-100.00,South,189,10.0,19.0,38,0.00,,,-99.99,,2013-01-27 21:02:00,
2013-01-27 14:12:00,44.0,19.0,-100.00,South,184,11.0,19.0,37,0.00,,,-99.99,,2013-01-27 21:12:00,
2013-01-27 14:22:00,43.0,18.0,-100.00,ESE,107,13.0,22.0,37,0.00,,,-99.99,,2013-01-27 21:22:00,
2013-01-27 14:33:00,43.0,18.0,-100.00,SE,127,11.0,22.0,36,0.00,,,-99.99,,2013-01-27 21:33:00,
2013-01-27 14:42:00,43.0,19.0,-100.00,South,186,10.0,19.0,37,0.00,,,-99.99,,2013-01-27 21:42:00,
2013-01-27 14:52:00,43.0,16.0,-100.00,South,184,17.0,26.0,34,0.00,,,-99.99,,2013-01-27 21:52:00,
2013-01-27 15:02:00,43.0,18.0,-100.00,South,188,14.0,24.0,35,0.00,,,-99.99,,2013-01-27 22:02:00,
2013-01-27 15:11:00,43.0,18.0,-100.00,South,184,9.0,20.0,35,0.00,,,-99.99,,2013-01-27 22:11:00,
2013-01-27 15:22:00,43.0,17.0,-100.00,South,191,20.0,27.0,36,0.00,,,-99.99,,2013-01-27 22:22:00,
2013-01-27 15:32:00,42.0,17.0,-100.00,SSW,193,24.0,32.0,35,0.00,,,-99.99,,2013-01-27 22:32:00,
2013-01-27 15:42:00,42.0,17.0,-100.00,South,188,28.0,37.0,37,0.00,,,-99.99,,2013-01-27 22:42:00,
2013-01-27 15:51:00,42.0,17.0,-100.00,South,191,27.0,36.0,35,0.00,,,-99.99,,2013-01-27 22:51:00,
2013-01-27 16:02:00,42.0,17.0,-100.00,SSW,193,28.0,36.0,36,0.00,,,-99.99,,2013-01-27 23:02:00,
2013-01-27 16:12:00,41.0,17.0,-100.00,SSW,200,23.0,33.0,37,0.00,,,-99.99,,2013-01-27 23:12:00,
2013-01-27 16:21:00,41.0,17.0,-100.00,SSW,199,23.0,37.0,37,0.00,,,-99.99,,2013-01-27 23:21:00,
2013-01-27 16:32:00,40.0,17.0,-100.00,SSW,198,24.0,36.0,39,0.00,,,-99.99,,2013-01-27 23:32:00,
2013-01-27 16:41:00,39.0,17.0,-100.00,SSW,195,22.0,34.0,40,0.00,,,-99.99,,2013-01-27 23:41:00,
2013-01-27 16:52:00,39.0,17.0,-100.00,South,189,22.0,30.0,39,0.00,,,-99.99,,2013-01-27 23:52:00,
2013-01-27 17:02:00,39.0,17.0,-100.00,South,184,22.0,30.0,41,0.00,,,-99.99,,2013-01-28 00:02:00,
2013-01-27 17:11:00,39.0,18.0,-100.00,South,179,23.0,30.0,42,0.00,,,-99.99,,2013-01-28 00:11:00,
2013-01-27 17:21:00,39.0,18.0,-100.00,South,174,28.0,35.0,41,0.00,,,-99.99,,2013-01-28 00:21:00,
2013-01-27 17:32:00,38.0,18.0,-100.00,South,175,22.0,30.0,44,0.00,,,-99.99,,2013-01-28 00:32:00,
2013-01-27 17:42:00,39.0,18.0,-100.00,South,172,21.0,28.0,44,0.00,,,-99.99,,2013-01-28 00:42:00,
2013-01-27 17:51:00,39.0,18.0,-100.00,South,179,23.0,34.0,42,0.00,,,-99.99,,2013-01-28 00:51:00,
2013-01-27 18:01:00,38.0,18.0,-100.00,South,179,21.0,30.0,44,0.00,,,-99.99,,2013-01-28 01:01:00,
2013-01-27 18:11:00,38.0,17.0,-100.00,South,181,21.0,34.0,41,0.00,,,-99.99,,2013-01-28 01:11:00,
2013-01-27 18:22:00,38.0,18.0,-100.00,South,176,24.0,32.0,43,0.00,,,-99.99,,2013-01-28 01:22:00,
2013-01-27 18:32:00,38.0,18.0,-100.00,South,179,25.0,36.0,44,0.00,,,-99.99,,2013-01-28 01:32:00,
2013-01-27 18:42:00,37.0,18.0,-100.00,South,188,21.0,31.0,46,0.00,,,-99.99,,2013-01-28 01:42:00,
2013-01-27 18:51:00,37.0,19.0,-100.00,South,188,20.0,28.0,47,0.00,,,-99.99,,2013-01-28 01:51:00,
2013-01-27 19:02:00,37.0,19.0,-100.00,South,186,21.0,29.0,46,0.00,,,-99.99,,2013-01-28 02:02:00,
2013-01-27 19:11:00,37.0,19.0,-100.00,South,186,20.0,30.0,48,0.00,,,-99.99,,2013-01-28 02:11:00,
2013-01-27 19:22:00,36.0,20.0,-100.00,South,188,18.0,27.0,51,0.00,,,-99.99,,2013-01-28 02:22:00,
2013-01-27 19:32:00,36.0,21.0,-100.00,SSW,195,21.0,27.0,53,0.00,,,-99.99,,2013-01-28 02:32:00,
2013-01-27 19:42:00,36.0,20.0,-100.00,South,186,22.0,31.0,52,0.00,,,-99.99,,2013-01-28 02:42:00,
2013-01-27 19:52:00,36.0,19.0,-100.00,South,182,23.0,37.0,51,0.00,,,-99.99,,2013-01-28 02:52:00,
2013-01-27 20:02:00,36.0,19.0,-100.00,South,178,27.0,39.0,49,0.00,,,-99.99,,2013-01-28 03:02:00,
2013-01-27 20:11:00,36.0,18.0,-100.00,South,179,27.0,39.0,49,0.00,,,-99.99,,2013-01-28 03:11:00,
2013-01-27 20:21:00,36.0,18.0,-100.00,South,184,26.0,39.0,47,0.00,,,-99.99,,2013-01-28 03:21:00,
2013-01-27 20:32:00,36.0,18.0,-100.00,South,182,27.0,44.0,47,0.00,,,-99.99,,2013-01-28 03:32:00,
2013-01-27 20:41:00,36.0,17.0,-100.00,South,176,27.0,39.0,46,0.00,,,-99.99,,2013-01-28 03:41:00,
2013-01-27 20:52:00,36.0,17.0,-100.00,South,178,29.0,37.0,44,0.00,,,-99.99,,2013-01-28 03:52:00,
2013-01-27 21:02:00,36.0,16.0,-100.00,South,176,29.0,41.0,42,0.00,,,-99.99,,2013-01-28 04:02:00,
2013-01-27 21:11:00,36.0,16.0,-100.00,South,176,29.0,38.0,42,0.00,,,-99.99,,2013-01-28 04:11:00,
2013-01-27 21:21:00,36.0,16.0,-100.00,SSE,168,22.0,34.0,45,0.00,,,-99.99,,2013-01-28 04:21:00,
2013-01-27 21:32:00,36.0,16.0,-100.00,SSE,167,27.0,35.0,44,0.00,,,-99.99,,2013-01-28 04:32:00,
2013-01-27 21:41:00,36.0,17.0,-100.00,SSE,162,27.0,37.0,46,0.00,,,-99.99,,2013-01-28 04:41:00,
2013-01-27 21:52:00,35.0,18.0,-100.00,SSE,155,22.0,31.0,50,0.00,,,-99.99,,2013-01-28 04:52:00,
2013-01-27 22:03:00,34.0,19.0,-100.00,SSE,151,19.0,26.0,53,0.00,,,-99.99,,2013-01-28 05:03:00,
2013-01-27 22:11:00,34.0,18.0,-100.00,SSE,152,19.0,24.0,51,0.00,,,-99.99,,2013-01-28 05:11:00,
2013-01-27 22:21:00,34.0,18.0,-100.00,SSE,158,15.0,21.0,52,0.00,,,-99.99,,2013-01-28 05:21:00,
2013-01-27 22:32:00,33.0,18.0,-100.00,SSE,150,13.0,18.0,54,0.00,,,-99.99,,2013-01-28 05:32:00,
2013-01-27 22:41:00,33.0,18.0,-100.00,SE,141,14.0,17.0,53,0.00,,,-99.99,,2013-01-28 05:41:00,
2013-01-27 22:52:00,33.0,17.0,-100.00,SSE,147,14.0,21.0,53,0.00,,,-99.99,,2013-01-28 05:52:00,
2013-01-27 23:02:00,32.0,17.0,-100.00,SE,144,11.0,16.0,55,0.00,,,-99.99,,2013-01-28 06:02:00,
2013-01-27 23:11:00,33.0,18.0,-100.00,SE,144,12.0,18.0,54,0.00,,,-99.99,,2013-01-28 06:11:00,
2013-01-27 23:21:00,32.0,18.0,-100.00,SE,140,16.0,19.0,55,0.00,,,-99.99,,2013-01-28 06:21:00,
2013-01-27 23:32:00,32.0,18.0,-100.00,SE,144,15.0,19.0,55,0.00,,,-99.99,,2013-01-28 06:32:00,
2013-01-27 23:42:00,33.0,20.0,-100.00,SSE,148,15.0,27.0,58,0.00,,,-99.99,,2013-01-28 06:42:00,
2013-01-27 23:52:00,32.0,20.0,-100.00,SSE,165,13.0,19.0,62,0.00,,,-99.99,,2013-01-28 06:52:00,